LEST/SCQ METAR and TAF weather

Enter ICAO airport designator
Station Type Date Time Source
LEST METAR 2019/10/15 21:00 UTC NOAA

LEST 152100Z 21016KT 170V260 7000 -RA SCT005 BKN008 OVC020 13/12 Q1016 TEMPO 3000 RA BKN010


Station Type Date Time Source
LEST Decoded METAR 2019/10/15 21:00 UTC NOAA

Santiago / Labacolla, Spain (LEST) 42-54N 008-26W 367M
Oct 15, 2019 - 05:00 PM EDT / 2019.10.15 2100 UTC
Wind: from the SSW (210 degrees) at 18 MPH (16 KT) (direction variable):0
Visibility: 4 mile(s):0
Sky conditions: overcast
Weather: light rain
Temperature: 55 F (13 C)
Dew Point: 53 F (12 C)
Relative Humidity: 93%
Pressure (altimeter): 30.00 in. Hg (1016 hPa)
ob: LEST 152100Z 21016KT 170V260 7000 -RA SCT005 BKN008 OVC020 13/12 Q1016 TEMPO 3000 RA BKN010
cycle: 21

Station Type Date Time Source
LEST TAF 2019/10/15 18:27 UTC NOAA

TAF LEST 151700Z 1518/1618 22009KT 9999 SCT020 BKN040 TX16/1614Z TN12/1606Z
TEMPO 1518/1618 20018G30KT
TEMPO 1518/1618 3000 RA BR BKN005 BKN010 PROB40
TEMPO 1612/1616 1500 +RA BCFG BKN005 BKN010 PROB40
TEMPO 1600/1612 1500 RA BCFG BKN005 PROB30
TEMPO 1600/1609 0600 RA BCFG BKN002

Example: see airport list